createdAt,value
2019-03-16T07:41:25.361Z,68.79
2019-03-16T07:46:25.333Z,68.86
2019-03-16T07:51:25.363Z,69.31
2019-03-16T07:56:25.322Z,68.24
2019-03-16T08:01:25.327Z,67.90
2019-03-16T08:06:25.365Z,67.93
2019-03-16T08:11:25.350Z,67.84
2019-03-16T08:16:25.378Z,66.90
2019-03-16T08:21:25.356Z,66.61
2019-03-16T08:26:25.358Z,66.91
2019-03-16T08:31:25.346Z,66.77
2019-03-16T08:36:25.352Z,67.00
2019-03-16T08:41:25.342Z,67.02
2019-03-16T08:46:25.331Z,66.29
2019-03-16T08:51:25.377Z,66.00
2019-03-16T08:56:25.331Z,66.52
2019-03-16T09:01:25.327Z,66.15
2019-03-16T09:06:25.375Z,66.00
2019-03-16T09:11:25.303Z,66.56
2019-03-16T09:16:25.325Z,68.31
2019-03-16T09:21:25.332Z,68.20
2019-03-16T09:26:25.350Z,68.84
2019-03-16T09:31:25.334Z,69.26
2019-03-16T09:36:25.337Z,70.51
2019-03-16T09:41:25.338Z,71.43
2019-03-16T09:46:25.311Z,71.77
2019-03-16T09:51:25.340Z,72.68
2019-03-16T09:56:25.322Z,72.27
2019-03-16T10:01:25.332Z,71.86
2019-03-16T10:06:25.332Z,72.02
2019-03-16T10:11:25.315Z,72.64
2019-03-16T10:16:25.339Z,72.59
2019-03-16T10:21:25.333Z,73.20
2019-03-16T10:26:25.317Z,72.87
2019-03-16T10:31:25.329Z,73.01
2019-03-16T10:42:36.351Z,0.00
2019-03-16T10:49:30.273Z,0.00
2019-03-16T10:54:30.297Z,0.00
2019-03-16T10:59:30.304Z,0.00
2019-03-16T11:04:30.329Z,0.00
2019-03-16T11:09:30.303Z,0.00
2019-03-16T11:14:30.308Z,0.00
2019-03-16T11:19:30.292Z,0.00
2019-03-16T11:24:30.291Z,0.00
2019-03-16T11:29:30.292Z,0.00
2019-03-16T11:34:30.277Z,0.00
2019-03-16T11:39:32.183Z,0.00
2019-03-16T11:44:30.288Z,0.00
2019-03-16T11:49:30.285Z,0.00
2019-03-16T11:54:30.299Z,0.00
2019-03-16T11:59:30.318Z,0.00
2019-03-16T12:04:30.302Z,0.00
2019-03-16T12:09:30.304Z,0.00
2019-03-16T12:14:30.322Z,0.00
2019-03-16T12:19:30.295Z,0.00
2019-03-16T12:24:30.291Z,0.00
2019-03-16T12:29:34.207Z,0.00
2019-03-16T12:34:30.277Z,0.00
2019-03-16T12:39:30.299Z,0.00
2019-03-16T12:44:30.310Z,0.00
2019-03-16T12:49:30.283Z,0.00
2019-03-16T12:54:30.282Z,0.00
2019-03-16T16:22:35.781Z,0.00
2019-03-16T16:27:35.491Z,0.00
2019-03-16T16:39:54.556Z,57.20
2019-03-16T16:44:54.354Z,56.71
2019-03-16T16:49:54.372Z,57.83
2019-03-16T16:54:54.319Z,58.88
2019-03-16T16:59:54.345Z,59.94
2019-03-16T17:04:54.353Z,61.47
2019-03-16T17:09:54.335Z,59.45
2019-03-16T17:14:54.326Z,58.74
2019-03-16T17:19:54.377Z,57.91
2019-03-16T17:24:54.343Z,57.38
2019-03-16T17:29:54.320Z,57.46
2019-03-16T17:34:54.390Z,57.37
2019-03-16T17:39:54.323Z,58.75
2019-03-16T17:44:54.326Z,59.31
2019-03-16T17:49:54.363Z,60.93
2019-03-16T17:54:54.329Z,60.47
2019-03-16T17:59:54.364Z,62.01
2019-03-16T18:04:54.381Z,62.20
2019-03-16T18:09:54.323Z,61.89
2019-03-16T18:14:54.321Z,62.51
2019-03-16T18:19:54.380Z,63.69
2019-03-16T18:24:54.339Z,66.97
2019-03-16T18:29:54.367Z,67.18
2019-03-16T18:34:54.376Z,68.34
2019-03-16T18:39:54.381Z,69.43
2019-03-16T18:44:54.366Z,70.53
2019-03-16T18:49:54.382Z,70.50
2019-03-16T18:54:54.318Z,72.12
2019-03-16T18:59:54.343Z,72.81
2019-03-16T19:04:54.371Z,73.51
2019-03-16T19:09:54.323Z,73.51
2019-03-16T19:14:54.353Z,73.90
2019-03-16T19:19:54.375Z,74.01
2019-03-16T19:24:54.318Z,73.66
2019-03-16T19:29:54.322Z,74.41
2019-03-16T19:34:54.354Z,73.84
2019-03-16T19:39:54.384Z,74.26
2019-03-16T19:44:54.349Z,74.15
2019-03-16T19:49:54.355Z,74.20
2019-03-16T19:54:54.325Z,74.43
2019-03-16T19:59:54.333Z,74.50
2019-03-16T20:04:54.364Z,73.81
2019-03-16T20:09:54.331Z,73.64
2019-03-16T20:14:54.354Z,73.60
2019-03-16T20:19:54.409Z,73.62
2019-03-16T20:24:54.323Z,73.46
2019-03-16T20:29:54.318Z,73.60
2019-03-16T20:34:54.355Z,73.09
2019-03-16T20:39:54.321Z,72.87
2019-03-16T20:44:54.324Z,72.96
2019-03-16T20:49:54.354Z,73.06
2019-03-16T20:54:54.305Z,71.53
2019-03-16T20:59:54.310Z,70.54
2019-03-16T21:04:54.353Z,68.61
2019-03-16T21:09:54.299Z,66.71
2019-03-16T21:14:54.340Z,65.82
2019-03-16T21:19:54.352Z,65.02
2019-03-16T21:24:54.297Z,67.33
2019-03-16T21:29:54.316Z,69.27
2019-03-16T21:34:54.331Z,69.48
2019-03-16T21:39:54.317Z,68.05
2019-03-16T21:44:54.308Z,66.83
2019-03-16T21:49:54.329Z,65.67
2019-03-16T21:54:54.315Z,65.48
2019-03-16T21:59:54.346Z,64.99
2019-03-16T22:04:54.351Z,64.12
2019-03-16T22:09:54.299Z,64.20
2019-03-16T22:14:54.314Z,64.90
2019-03-16T22:19:54.359Z,66.10
2019-03-16T22:24:54.309Z,66.85
2019-03-16T22:29:54.324Z,67.54
2019-03-16T22:34:54.334Z,68.71
2019-03-16T22:39:54.347Z,68.67
2019-03-16T22:44:54.364Z,68.50
2019-03-16T22:49:54.368Z,68.29
2019-03-16T22:54:54.356Z,68.29
2019-03-16T22:59:54.364Z,67.78
2019-03-16T23:04:54.369Z,67.04
2019-03-16T23:09:54.305Z,67.44
2019-03-16T23:14:54.375Z,67.86
2019-03-16T23:19:54.336Z,67.97
2019-03-16T23:24:54.298Z,68.10
2019-03-16T23:29:54.342Z,67.62
2019-03-16T23:34:54.349Z,67.16
2019-03-16T23:39:54.320Z,67.10
2019-03-16T23:44:54.332Z,67.51
2019-03-16T23:49:54.345Z,67.26
2019-03-16T23:54:54.275Z,67.19
2019-03-16T23:59:54.312Z,67.73
